Time;durP1;ratioP1;P1;durP2;ratioP2;P2;SDS_P1;SDS_P2;PMS_P1;PMS_P2;Temp;Humidity;BMP_temperature;BMP_pressure;BME280_temperature;BME280_humidity;BME280_pressure;Samples;Min_cycle;Max_cycle;Signal;HPM_P1;HPM_P2
2022/08/18 00:00:43;;;;;;;40.40;21.05;;;;;;;;;;1631041;88;21139;-88
2022/08/18 00:03:10;;;;;;;43.83;21.80;;;;;;;;;;1631217;88;21576;-88
2022/08/18 00:05:36;;;;;;;43.45;21.62;;;;;;;;;;1630872;88;21047;-88
2022/08/18 00:08:03;;;;;;;39.83;20.68;;;;;;;;;;1631368;88;21135;-87
2022/08/18 00:10:29;;;;;;;39.70;21.45;;;;;;;;;;1631319;88;21920;-87
2022/08/18 00:12:55;;;;;;;43.68;19.25;;;;;;;;;;1642506;86;20916;-88
2022/08/18 00:15:20;;;;;;;45.15;20.37;;;;;;;;;;1655198;86;20936;-87
2022/08/18 00:17:46;;;;;;;37.53;19.73;;;;;;;;;;1658572;85;20900;-88
2022/08/18 00:20:16;;;;;;;40.52;20.92;;;;;;;;;;1679772;85;21006;-88
2022/08/18 00:22:41;;;;;;;45.40;21.82;;;;;;;;;;1654231;86;21141;-87
2022/08/18 00:25:09;;;;;;;44.65;21.70;;;;;;;;;;1660680;86;20924;-87
2022/08/18 00:27:40;;;;;;;43.28;21.75;;;;;;;;;;1660481;86;21168;-87
2022/08/18 00:30:09;;;;;;;41.02;21.42;;;;;;;;;;1660626;86;21050;-88
2022/08/18 00:32:37;;;;;;;41.08;21.55;;;;;;;;;;1660690;86;21074;-87
2022/08/18 00:35:09;;;;;;;43.65;21.48;;;;;;;;;;1660729;86;21079;-88
2022/08/18 00:37:36;;;;;;;38.58;21.30;;;;;;;;;;1637586;87;21086;-88
2022/08/18 00:40:03;;;;;;;44.73;21.73;;;;;;;;;;1637377;87;21622;-87
2022/08/18 00:42:30;;;;;;;40.38;20.45;;;;;;;;;;1637746;87;21590;-88
2022/08/18 00:44:58;;;;;;;41.50;20.60;;;;;;;;;;1727673;83;21546;-86
2022/08/18 00:47:27;;;;;;;44.25;22.30;;;;;;;;;;1727768;83;21318;-88
2022/08/18 00:49:52;;;;;;;41.92;21.00;;;;;;;;;;1727669;82;21523;-89
2022/08/18 00:52:18;;;;;;;45.98;21.52;;;;;;;;;;1727817;83;21055;-88
2022/08/18 00:54:44;;;;;;;49.85;22.25;;;;;;;;;;1727803;83;20950;-88
2022/08/18 00:57:11;;;;;;;42.70;23.15;;;;;;;;;;1728026;83;21101;-88
2022/08/18 00:59:49;;;;;;;44.33;21.02;;;;;;;;;;1727971;83;21145;-86
2022/08/18 01:02:18;;;;;;;50.55;21.82;;;;;;;;;;1727756;83;21049;-87
2022/08/18 01:04:59;;;;;;;45.10;21.33;;;;;;;;;;1668433;84;21041;-88
2022/08/18 01:07:28;;;;;;;46.15;20.75;;;;;;;;;;1607472;87;21092;-88
2022/08/18 01:09:54;;;;;;;46.42;21.65;;;;;;;;;;1607649;88;21171;-88
2022/08/18 01:12:20;;;;;;;43.38;20.52;;;;;;;;;;1607132;88;21195;-86
2022/08/18 01:14:46;;;;;;;46.28;22.65;;;;;;;;;;1607342;88;21038;-88
2022/08/18 01:22:48;;;;;;;47.00;23.15;;;;;;;;;;1606890;88;21089;-88
2022/08/18 01:28:02;;;;;;;48.08;21.73;;;;;;;;;;1574787;89;21173;-86
2022/08/18 01:30:29;;;;;;;57.33;25.17;;;;;;;;;;1575002;91;21055;-91
2022/08/18 01:32:55;;;;;;;58.45;25.70;;;;;;;;;;1574804;89;21071;-85
2022/08/18 01:35:24;;;;;;;48.65;25.75;;;;;;;;;;1592547;90;21190;-87
2022/08/18 01:37:51;;;;;;;51.25;25.37;;;;;;;;;;1608215;86;22000;-88
2022/08/18 01:40:19;;;;;;;52.58;25.17;;;;;;;;;;1661879;86;21030;-87
2022/08/18 01:42:45;;;;;;;55.88;25.85;;;;;;;;;;1661472;86;21447;-85
2022/08/18 01:45:14;;;;;;;52.70;24.30;;;;;;;;;;1661737;86;20872;-88
2022/08/18 01:47:40;;;;;;;52.33;26.48;;;;;;;;;;1661712;86;20979;-87
2022/08/18 01:50:11;;;;;;;52.85;25.95;;;;;;;;;;1661785;86;21106;-88
2022/08/18 01:55:06;;;;;;;52.45;26.42;;;;;;;;;;1596745;89;21501;-87
2022/08/18 01:57:33;;;;;;;57.10;26.17;;;;;;;;;;1597006;89;21016;-87
2022/08/18 01:59:59;;;;;;;53.00;24.37;;;;;;;;;;1593596;89;21134;-87
2022/08/18 02:02:28;;;;;;;48.90;24.32;;;;;;;;;;1642618;86;21175;-88
2022/08/18 02:04:58;;;;;;;52.55;26.23;;;;;;;;;;1687328;85;21036;-88
2022/08/18 02:07:24;;;;;;;53.02;26.10;;;;;;;;;;1687536;85;21031;-88
2022/08/18 02:09:49;;;;;;;54.30;24.60;;;;;;;;;;1687335;85;20884;-88
2022/08/18 02:12:15;;;;;;;61.35;26.25;;;;;;;;;;1687575;85;21105;-86
2022/08/18 02:14:41;;;;;;;57.03;25.57;;;;;;;;;;1689239;84;21063;-86
2022/08/18 02:17:09;;;;;;;50.88;24.75;;;;;;;;;;1696638;83;21638;-89
2022/08/18 02:19:38;;;;;;;45.28;23.75;;;;;;;;;;1705746;82;21050;-87
2022/08/18 02:22:06;;;;;;;54.38;24.75;;;;;;;;;;1701733;83;21055;-88
2022/08/18 02:24:32;;;;;;;51.37;24.18;;;;;;;;;;1694420;83;21110;-88
2022/08/18 02:26:58;;;;;;;58.30;27.00;;;;;;;;;;1702375;83;21253;-88
2022/08/18 02:29:23;;;;;;;52.00;25.75;;;;;;;;;;1676268;85;21042;-88
2022/08/18 02:31:49;;;;;;;53.05;25.95;;;;;;;;;;1653316;86;20937;-87
2022/08/18 02:34:16;;;;;;;52.13;26.42;;;;;;;;;;1707509;83;20893;-88
2022/08/18 02:36:42;;;;;;;56.50;26.00;;;;;;;;;;1705422;83;21109;-89
2022/08/18 02:39:08;;;;;;;60.03;26.57;;;;;;;;;;1710317;83;21914;-88
2022/08/18 02:41:35;;;;;;;48.38;23.98;;;;;;;;;;1710126;83;20884;-88
2022/08/18 02:44:01;;;;;;;50.03;24.60;;;;;;;;;;1704226;83;21063;-88
2022/08/18 02:46:27;;;;;;;54.90;26.25;;;;;;;;;;1704471;83;21046;-89
2022/08/18 02:48:54;;;;;;;51.10;24.95;;;;;;;;;;1663553;85;21090;-87
2022/08/18 02:51:19;;;;;;;52.62;24.75;;;;;;;;;;1661046;83;21201;-88
2022/08/18 02:53:46;;;;;;;58.80;25.82;;;;;;;;;;1770040;80;20940;-88
2022/08/18 02:56:21;;;;;;;56.33;25.60;;;;;;;;;;1763789;80;21047;-88
2022/08/18 02:58:42;;;;;;;48.85;24.07;;;;;;;;;;1700297;82;21106;-88
2022/08/18 03:01:09;;;;;;;45.98;23.25;;;;;;;;;;1698537;83;20877;-88
2022/08/18 03:03:36;;;;;;;47.17;23.57;;;;;;;;;;1700933;84;22058;-87
2022/08/18 03:06:03;;;;;;;49.75;24.37;;;;;;;;;;1700984;84;21000;-88
2022/08/18 03:08:28;;;;;;;49.80;24.00;;;;;;;;;;1701400;84;20996;-88
2022/08/18 03:10:54;;;;;;;47.78;25.05;;;;;;;;;;1701259;84;20908;-88
2022/08/18 03:13:20;;;;;;;46.02;24.75;;;;;;;;;;1700874;84;21669;-87
2022/08/18 03:15:46;;;;;;;53.38;24.43;;;;;;;;;;1699012;84;21072;-88
2022/08/18 03:18:12;;;;;;;52.98;24.45;;;;;;;;;;1699107;84;21669;-92
2022/08/18 03:20:38;;;;;;;47.58;23.18;;;;;;;;;;1698826;84;21024;-87
2022/08/18 03:23:05;;;;;;;49.70;24.65;;;;;;;;;;1699037;84;21088;-88
2022/08/18 03:25:30;;;;;;;52.30;23.77;;;;;;;;;;1699014;84;21153;-87
2022/08/18 03:27:56;;;;;;;50.40;25.77;;;;;;;;;;1698990;84;21926;-87
2022/08/18 03:30:22;;;;;;;51.45;24.82;;;;;;;;;;1737972;82;20837;-88
2022/08/18 03:32:49;;;;;;;43.95;22.82;;;;;;;;;;1751626;82;20966;-88
2022/08/18 03:35:15;;;;;;;44.42;22.93;;;;;;;;;;1722017;82;20972;-85
2022/08/18 03:37:41;;;;;;;44.30;22.50;;;;;;;;;;1721837;82;20987;-87
2022/08/18 03:40:09;;;;;;;46.70;23.00;;;;;;;;;;1751208;82;21170;-88
2022/08/18 03:42:36;;;;;;;40.95;21.52;;;;;;;;;;1751153;82;21061;-88
2022/08/18 03:45:03;;;;;;;44.48;22.00;;;;;;;;;;1751444;82;20998;-88
2022/08/18 03:47:29;;;;;;;42.33;19.95;;;;;;;;;;1751553;82;21639;-89
2022/08/18 03:49:55;;;;;;;35.40;19.62;;;;;;;;;;1751647;82;20904;-86
2022/08/18 03:52:21;;;;;;;38.02;19.35;;;;;;;;;;1751622;82;21140;-89
2022/08/18 03:54:47;;;;;;;35.05;18.85;;;;;;;;;;1766149;80;21055;-88
2022/08/18 03:57:13;;;;;;;35.88;16.52;;;;;;;;;;1775632;80;21544;-89
2022/08/18 04:02:07;;;;;;;29.42;15.70;;;;;;;;;;1668495;85;21094;-88
2022/08/18 04:04:33;;;;;;;25.85;15.38;;;;;;;;;;1669614;83;21084;-88
2022/08/18 04:07:03;;;;;;;26.07;14.85;;;;;;;;;;1697413;83;21060;-87
2022/08/18 04:09:30;;;;;;;27.60;15.03;;;;;;;;;;1694553;83;21012;-89
2022/08/18 04:11:56;;;;;;;28.52;14.93;;;;;;;;;;1700732;83;21095;-89
2022/08/18 04:14:29;;;;;;;28.35;14.03;;;;;;;;;;1672438;83;21618;-90
2022/08/18 04:16:52;;;;;;;27.80;15.48;;;;;;;;;;1688788;83;21043;-89
2022/08/18 04:19:19;;;;;;;31.87;15.93;;;;;;;;;;1684586;83;20943;-89
2022/08/18 04:21:44;;;;;;;26.90;14.70;;;;;;;;;;1683711;83;21082;-88
2022/08/18 04:24:12;;;;;;;30.57;16.00;;;;;;;;;;1680118;84;21030;-89
2022/08/18 04:26:41;;;;;;;32.05;15.45;;;;;;;;;;1672815;84;20996;-88
2022/08/18 04:29:09;;;;;;;28.32;15.85;;;;;;;;;;1654559;85;21926;-89
2022/08/18 04:31:35;;;;;;;29.20;15.10;;;;;;;;;;1649697;86;21092;-89
2022/08/18 04:34:02;;;;;;;34.23;16.93;;;;;;;;;;1655737;86;21053;-88
2022/08/18 04:36:29;;;;;;;34.78;16.95;;;;;;;;;;1656041;85;21102;-91
2022/08/18 04:38:56;;;;;;;29.90;17.32;;;;;;;;;;1654102;85;21499;-88
2022/08/18 04:41:25;;;;;;;33.15;17.60;;;;;;;;;;1653652;86;21698;-88
2022/08/18 04:43:59;;;;;;;38.63;18.40;;;;;;;;;;1649281;85;21123;-88
2022/08/18 04:46:25;;;;;;;34.23;16.67;;;;;;;;;;1667511;84;21086;-88
2022/08/18 04:48:57;;;;;;;31.97;17.17;;;;;;;;;;1642620;85;22786;-87
2022/08/18 04:51:19;;;;;;;35.13;17.70;;;;;;;;;;1654321;86;21053;-88
2022/08/18 04:53:46;;;;;;;34.48;17.65;;;;;;;;;;1669695;85;21944;-87
2022/08/18 04:56:24;;;;;;;38.30;18.27;;;;;;;;;;1665643;84;21138;-87
2022/08/18 04:58:51;;;;;;;33.95;18.32;;;;;;;;;;1705191;80;21016;-85
2022/08/18 05:01:22;;;;;;;41.53;19.95;;;;;;;;;;1770110;80;21746;-88
2022/08/18 05:03:50;;;;;;;38.55;19.02;;;;;;;;;;1765835;80;21043;-88
2022/08/18 05:06:16;;;;;;;36.15;18.60;;;;;;;;;;1769193;80;21112;-86
2022/08/18 05:08:42;;;;;;;35.00;18.02;;;;;;;;;;1770640;80;21001;-88
2022/08/18 05:11:08;;;;;;;30.92;17.15;;;;;;;;;;1771727;80;20951;-87
2022/08/18 05:13:34;;;;;;;32.93;16.57;;;;;;;;;;1771893;80;21038;-88
2022/08/18 05:16:03;;;;;;;28.35;15.83;;;;;;;;;;1761788;80;20894;-87
2022/08/18 05:18:30;;;;;;;29.25;16.05;;;;;;;;;;1770328;80;21128;-88
2022/08/18 05:20:56;;;;;;;35.28;16.75;;;;;;;;;;1765869;80;21630;-88
2022/08/18 05:23:23;;;;;;;28.02;15.88;;;;;;;;;;1770743;80;21020;-88
2022/08/18 05:25:49;;;;;;;23.57;14.53;;;;;;;;;;1770332;81;20948;-88
2022/08/18 05:28:15;;;;;;;32.00;14.95;;;;;;;;;;1772833;81;21035;-88
2022/08/18 05:30:41;;;;;;;20.80;13.50;;;;;;;;;;1772692;81;21879;-88
2022/08/18 05:35:43;;;;;;;25.95;13.88;;;;;;;;;;1687087;83;32643;-88
2022/08/18 05:38:27;;;;;;;24.47;13.85;;;;;;;;;;1606753;87;21101;-88
2022/08/18 05:41:08;;;;;;;29.18;14.40;;;;;;;;;;1634479;86;20991;-89
2022/08/18 05:43:36;;;;;;;23.90;13.18;;;;;;;;;;1635652;86;21125;-88
2022/08/18 05:46:04;;;;;;;22.02;13.85;;;;;;;;;;1637989;86;20932;-86
2022/08/18 05:48:31;;;;;;;22.25;14.50;;;;;;;;;;1632000;86;21131;-86
2022/08/18 05:50:58;;;;;;;18.42;12.98;;;;;;;;;;1626665;86;21104;-87
2022/08/18 05:56:45;;;;;;;21.23;12.85;;;;;;;;;;1627987;86;21102;-86
2022/08/18 05:58:48;;;;;;;19.65;12.30;;;;;;;;;;1629673;86;20992;-88
2022/08/18 06:01:24;;;;;;;19.23;13.60;;;;;;;;;;1627570;87;21106;-87
2022/08/18 06:03:53;;;;;;;22.55;12.88;;;;;;;;;;1620874;87;21110;-87
2022/08/18 06:06:22;;;;;;;22.55;13.85;;;;;;;;;;1626529;86;21683;-88
2022/08/18 06:09:04;;;;;;;21.17;12.98;;;;;;;;;;1558806;90;21289;-87
2022/08/18 06:11:31;;;;;;;19.15;12.93;;;;;;;;;;1492671;95;21227;-87
2022/08/18 06:14:00;;;;;;;22.40;13.05;;;;;;;;;;1501428;93;21134;-88
2022/08/18 06:16:44;;;;;;;21.50;13.58;;;;;;;;;;1482489;95;21048;-88
2022/08/18 06:19:26;;;;;;;22.20;15.20;;;;;;;;;;1508859;93;21217;-88
2022/08/18 06:22:08;;;;;;;22.22;15.30;;;;;;;;;;1509100;93;21114;-88
2022/08/18 06:24:49;;;;;;;23.40;15.13;;;;;;;;;;1510054;93;21122;-87
2022/08/18 06:27:40;;;;;;;27.65;15.08;;;;;;;;;;1509714;93;21139;-88
2022/08/18 06:30:13;;;;;;;;;;;;;;;;;;1512634;93;21548;-88
2022/08/18 06:33:04;;;;;;;23.73;16.27;;;;;;;;;;1536410;92;20552;-87
2022/08/18 06:35:37;;;;;;;;;;;;;;;;;;1569166;90;21550;-87
2022/08/18 06:41:15;;;;;;;24.55;16.57;;;;;;;;;;1618818;88;22115;-87
2022/08/18 06:43:44;;;;;;;23.40;16.48;;;;;;;;;;1617224;88;21151;-90
2022/08/18 06:46:13;;;;;;;17.60;15.75;;;;;;;;;;1532119;93;21163;-89
2022/08/18 06:48:52;;;;;;;19.60;14.85;;;;;;;;;;1517560;92;21193;-88
2022/08/18 06:51:20;;;;;;;24.77;17.55;;;;;;;;;;1513804;93;22425;-89
2022/08/18 06:54:07;;;;;;;21.30;15.95;;;;;;;;;;1514048;93;21665;-89
2022/08/18 06:56:40;;;;;;;20.08;15.40;;;;;;;;;;1513909;93;21610;-88
2022/08/18 06:59:20;;;;;;;23.40;16.30;;;;;;;;;;1513918;93;21171;-89
2022/08/18 07:01:49;;;;;;;22.22;16.42;;;;;;;;;;1514070;93;21141;-87
2022/08/18 07:04:34;;;;;;;20.57;16.07;;;;;;;;;;1514143;93;21165;-87
2022/08/18 07:07:03;;;;;;;18.90;15.70;;;;;;;;;;1514103;93;21120;-87
2022/08/18 07:09:32;;;;;;;20.85;14.47;;;;;;;;;;1468094;96;21607;-87
2022/08/18 07:12:06;;;;;;;26.30;15.23;;;;;;;;;;1453379;97;21637;-88
2022/08/18 07:14:47;;;;;;;18.75;14.85;;;;;;;;;;1441825;99;21269;-88
2022/08/18 07:17:28;;;;;;;21.33;14.80;;;;;;;;;;1444217;98;21664;-90
2022/08/18 07:19:57;;;;;;;20.10;13.35;;;;;;;;;;1437521;98;21140;-89
2022/08/18 07:22:24;;;;;;;23.83;14.53;;;;;;;;;;1378371;102;21262;-90
2022/08/18 07:24:54;;;;;;;25.00;15.20;;;;;;;;;;1385427;101;21145;-88
2022/08/18 07:27:23;;;;;;;21.15;14.95;;;;;;;;;;1383614;102;24003;-89
2022/08/18 07:30:05;;;;;;;17.13;15.23;;;;;;;;;;1378856;102;21200;-88
2022/08/18 07:32:34;;;;;;;19.92;16.15;;;;;;;;;;1378141;102;21193;-87
2022/08/18 07:35:02;;;;;;;21.53;14.40;;;;;;;;;;1361714;102;21113;-86
2022/08/18 07:37:41;;;;;;;20.72;15.90;;;;;;;;;;1361381;103;21336;-89
2022/08/18 07:40:22;;;;;;;22.32;15.40;;;;;;;;;;1324048;107;21281;-89
2022/08/18 07:42:53;;;;;;;20.48;15.58;;;;;;;;;;1320454;107;21601;-89
2022/08/18 07:45:28;;;;;;;18.17;15.15;;;;;;;;;;1307711;107;21261;-89
2022/08/18 07:48:01;;;;;;;20.02;16.60;;;;;;;;;;1338456;104;21719;-88
2022/08/18 07:50:28;;;;;;;20.25;15.38;;;;;;;;;;1404941;101;21261;-89
2022/08/18 07:53:09;;;;;;;21.82;16.73;;;;;;;;;;1414675;101;21927;-89
2022/08/18 07:55:35;;;;;;;23.52;16.65;;;;;;;;;;1413487;101;21621;-89
2022/08/18 07:58:25;;;;;;;19.92;15.80;;;;;;;;;;1414529;101;21181;-88
2022/08/18 08:00:56;;;;;;;;;;;;;;;;;;1416865;101;21230;-88
2022/08/18 08:03:45;;;;;;;19.77;14.47;;;;;;;;;;1427348;97;20209;-88
2022/08/18 08:06:17;;;;;;;21.45;15.30;;;;;;;;;;1470254;97;21175;-88
2022/08/18 08:08:49;;;;;;;18.02;14.73;;;;;;;;;;1469978;97;21079;-88
2022/08/18 08:11:43;;;;;;;18.30;13.28;;;;;;;;;;1487147;94;21140;-86
2022/08/18 08:14:39;;;;;;;13.98;12.53;;;;;;;;;;1462349;97;21092;-87
2022/08/18 08:17:31;;;;;;;17.25;12.82;;;;;;;;;;1474833;95;21082;-85
2022/08/18 08:20:12;;;;;;;13.78;12.35;;;;;;;;;;1569620;88;21147;-85
2022/08/18 08:22:59;;;;;;;18.00;13.28;;;;;;;;;;1614523;88;21118;-86
2022/08/18 08:25:32;;;;;;;15.08;13.30;;;;;;;;;;1583163;89;21091;-86
2022/08/18 08:28:02;;;;;;;16.75;12.98;;;;;;;;;;1614650;88;21089;-88
2022/08/18 08:30:30;;;;;;;13.45;12.05;;;;;;;;;;1614815;88;21590;-85
2022/08/18 08:33:12;;;;;;;14.40;13.00;;;;;;;;;;1629365;87;21110;-88
2022/08/18 08:35:44;;;;;;;16.35;12.55;;;;;;;;;;1631383;87;21043;-86
2022/08/18 08:38:19;;;;;;;18.45;12.98;;;;;;;;;;1630392;87;21093;-87
2022/08/18 08:41:03;;;;;;;14.03;12.63;;;;;;;;;;1572556;90;21188;-86
2022/08/18 08:43:50;;;;;;;15.80;13.25;;;;;;;;;;1572517;91;21094;-85
2022/08/18 08:46:25;;;;;;;14.28;12.78;;;;;;;;;;1639873;87;21196;-87
2022/08/18 08:48:57;;;;;;;14.80;13.18;;;;;;;;;;1645287;87;21099;-86
2022/08/18 08:51:32;;;;;;;13.95;12.45;;;;;;;;;;1623205;87;21070;-87
2022/08/18 08:54:02;;;;;;;14.25;12.40;;;;;;;;;;1619499;88;21121;-85
2022/08/18 08:56:34;;;;;;;14.63;11.65;;;;;;;;;;1551713;91;21105;-85
2022/08/18 08:59:12;;;;;;;17.00;11.78;;;;;;;;;;1572282;91;21166;-85
2022/08/18 09:01:58;;;;;;;13.98;11.60;;;;;;;;;;1551606;91;21115;-86
2022/08/18 09:04:34;;;;;;;14.07;11.33;;;;;;;;;;1557913;91;21070;-87
2022/08/18 09:07:15;;;;;;;14.53;10.85;;;;;;;;;;1557891;91;21178;-88
2022/08/18 09:10:13;;;;;;;11.43;10.23;;;;;;;;;;1524884;94;21173;-85
2022/08/18 09:12:59;;;;;;;17.98;10.40;;;;;;;;;;1537170;91;21105;-86
2022/08/18 09:15:32;;;;;;;12.45;9.98;;;;;;;;;;1558785;91;21643;-87
2022/08/18 09:18:07;;;;;;;11.73;9.55;;;;;;;;;;1556414;92;21085;-85
2022/08/18 09:20:58;;;;;;;10.55;8.65;;;;;;;;;;1517573;94;21078;-85
2022/08/18 09:23:27;;;;;;;12.47;8.70;;;;;;;;;;1514967;93;21121;-87
2022/08/18 09:25:59;;;;;;;13.40;8.95;;;;;;;;;;1510789;93;21842;-84
2022/08/18 09:28:30;;;;;;;14.85;9.05;;;;;;;;;;1510289;93;21152;-85
2022/08/18 09:31:06;;;;;;;12.28;9.03;;;;;;;;;;1510413;94;21166;-85
2022/08/18 09:36:29;;;;;;;12.20;8.53;;;;;;;;;;1489417;95;21130;-85
2022/08/18 09:41:47;;;;;;;;;;;;;;;;;;1489857;95;21109;-84
2022/08/18 09:44:16;;;;;;;11.68;8.13;;;;;;;;;;1487672;95;20284;-85
2022/08/18 09:46:46;;;;;;;14.50;9.30;;;;;;;;;;1487905;95;21178;-85
2022/08/18 09:49:29;;;;;;;11.48;8.35;;;;;;;;;;1531640;91;21136;-86
2022/08/18 09:51:57;;;;;;;14.85;8.75;;;;;;;;;;1535573;91;21155;-85
2022/08/18 09:54:29;;;;;;;11.40;7.92;;;;;;;;;;1558351;90;21124;-86
2022/08/18 09:57:08;;;;;;;15.28;8.70;;;;;;;;;;1550494;90;21205;-84
2022/08/18 09:59:37;;;;;;;9.45;7.40;;;;;;;;;;1556915;90;21100;-84
2022/08/18 10:02:10;;;;;;;14.18;8.48;;;;;;;;;;1551465;90;21704;-86
2022/08/18 10:07:33;;;;;;;15.10;9.10;;;;;;;;;;1508641;93;21121;-85
2022/08/18 10:10:05;;;;;;;29.52;8.48;;;;;;;;;;1508479;93;21126;-84
2022/08/18 10:12:55;;;;;;;13.65;8.98;;;;;;;;;;1510909;93;21138;-86
2022/08/18 10:15:31;;;;;;;11.78;8.35;;;;;;;;;;1518766;91;21134;-85
2022/08/18 10:18:00;;;;;;;13.95;9.38;;;;;;;;;;1533093;87;21196;-85
2022/08/18 10:20:51;;;;;;;14.90;9.15;;;;;;;;;;1602311;88;21185;-85
2022/08/18 10:23:50;;;;;;;14.18;9.00;;;;;;;;;;1624124;86;21056;-84
2022/08/18 10:26:39;;;;;;;14.90;9.70;;;;;;;;;;1571431;90;21095;-91
2022/08/18 10:29:12;;;;;;;16.10;9.38;;;;;;;;;;1561809;91;22402;-85
2022/08/18 10:32:00;;;;;;;15.28;10.28;;;;;;;;;;1567694;90;21071;-86
2022/08/18 10:34:47;;;;;;;13.48;9.10;;;;;;;;;;1534709;92;21168;-86
2022/08/18 10:37:19;;;;;;;15.15;8.90;;;;;;;;;;1535820;92;21048;-88
2022/08/18 10:39:49;;;;;;;14.28;9.40;;;;;;;;;;1543304;91;21170;-88
2022/08/18 10:42:30;;;;;;;14.68;9.53;;;;;;;;;;1536989;93;21221;-87
2022/08/18 10:45:12;;;;;;;14.95;9.95;;;;;;;;;;1543331;91;21986;-86
2022/08/18 10:47:38;;;;;;;18.55;9.73;;;;;;;;;;1547953;91;21109;-88
2022/08/18 10:50:10;;;;;;;15.58;9.70;;;;;;;;;;1549288;91;20983;-90
2022/08/18 10:52:51;;;;;;;15.93;10.15;;;;;;;;;;1564078;90;21120;-90
2022/08/18 10:55:37;;;;;;;19.53;9.73;;;;;;;;;;1561378;90;21044;-87
2022/08/18 10:58:15;;;;;;;15.75;10.03;;;;;;;;;;1514983;93;21285;-88
2022/08/18 11:00:51;;;;;;;18.98;10.50;;;;;;;;;;1510146;94;21038;-89
2022/08/18 11:03:39;;;;;;;16.60;9.83;;;;;;;;;;1533254;91;21273;-87
2022/08/18 11:06:07;;;;;;;14.98;9.30;;;;;;;;;;1508443;93;21093;-87
2022/08/18 11:08:40;;;;;;;20.70;10.32;;;;;;;;;;1501821;94;21112;-86
2022/08/18 11:11:08;;;;;;;16.32;10.10;;;;;;;;;;1511654;92;21185;-87
2022/08/18 11:14:01;;;;;;;19.23;9.55;;;;;;;;;;1549601;92;21066;-87
2022/08/18 11:16:45;;;;;;;13.68;9.58;;;;;;;;;;1558244;90;21085;-87
2022/08/18 11:19:13;;;;;;;14.87;9.60;;;;;;;;;;1573982;90;21065;-88
2022/08/18 11:21:42;;;;;;;21.25;9.73;;;;;;;;;;1586574;87;21070;-88
2022/08/18 11:24:19;;;;;;;16.82;9.80;;;;;;;;;;1624337;87;21192;-88
2022/08/18 11:26:53;;;;;;;15.55;9.88;;;;;;;;;;1621603;87;21159;-87
2022/08/18 11:29:26;;;;;;;12.43;8.95;;;;;;;;;;1627883;85;21090;-88
2022/08/18 11:31:58;;;;;;;17.32;9.35;;;;;;;;;;1683239;83;21064;-89
2022/08/18 11:34:42;;;;;;;14.43;8.80;;;;;;;;;;1678345;83;21034;-89
2022/08/18 11:37:25;;;;;;;16.32;8.70;;;;;;;;;;1672959;85;21172;-89
2022/08/18 11:39:54;;;;;;;14.28;8.85;;;;;;;;;;1658220;86;21113;-90
2022/08/18 11:42:28;;;;;;;15.30;8.43;;;;;;;;;;1675088;85;21372;-90
2022/08/18 11:45:03;;;;;;;13.98;8.43;;;;;;;;;;1684366;85;21085;-92
2022/08/18 11:47:29;;;;;;;15.80;8.70;;;;;;;;;;1639999;87;21518;-91
2022/08/18 11:50:10;;;;;;;14.15;8.33;;;;;;;;;;1628230;87;21101;-91
2022/08/18 11:52:49;;;;;;;10.40;8.10;;;;;;;;;;1639324;86;21547;-91
2022/08/18 11:55:21;;;;;;;14.60;8.25;;;;;;;;;;1554998;92;21090;-91
2022/08/18 11:57:55;;;;;;;13.58;8.20;;;;;;;;;;1528288;92;21254;-90
2022/08/18 12:00:43;;;;;;;10.78;7.85;;;;;;;;;;1472221;94;21118;-91
2022/08/18 12:03:29;;;;;;;17.37;8.33;;;;;;;;;;1470472;95;21628;-90
2022/08/18 12:06:01;;;;;;;11.15;7.87;;;;;;;;;;1498307;94;21341;-90
2022/08/18 12:08:34;;;;;;;12.85;8.05;;;;;;;;;;1494900;95;21121;-89
2022/08/18 12:11:06;;;;;;;15.45;8.03;;;;;;;;;;1499843;95;21655;-90
2022/08/18 12:13:31;;;;;;;;;;;;;;;;;;1460530;98;21167;-89
2022/08/18 12:16:31;;;;;;;12.93;7.60;;;;;;;;;;1453076;98;20196;-90
2022/08/18 12:18:58;;;;;;;11.65;7.60;;;;;;;;;;1465995;96;21104;-90
2022/08/18 12:21:23;;;;;;;10.80;7.45;;;;;;;;;;1472886;96;21612;-90
2022/08/18 12:23:49;;;;;;;11.70;7.70;;;;;;;;;;1487368;96;20990;-90
2022/08/18 12:26:15;;;;;;;16.27;8.50;;;;;;;;;;1491546;96;21153;-91
2022/08/18 12:28:41;;;;;;;11.95;7.45;;;;;;;;;;1490828;96;21068;-89
2022/08/18 12:31:07;;;;;;;13.78;8.18;;;;;;;;;;1450117;97;21516;-91
2022/08/18 12:33:34;;;;;;;12.80;8.00;;;;;;;;;;1448838;97;21140;-89
2022/08/18 12:36:03;;;;;;;15.78;8.18;;;;;;;;;;1469663;97;21112;-89
2022/08/18 12:38:30;;;;;;;14.45;8.70;;;;;;;;;;1462650;97;21245;-91
2022/08/18 12:40:56;;;;;;;12.90;7.87;;;;;;;;;;1444326;99;21161;-90
2022/08/18 12:43:22;;;;;;;15.10;7.72;;;;;;;;;;1464660;94;21026;-90
2022/08/18 12:45:48;;;;;;;13.38;8.45;;;;;;;;;;1513802;94;21796;-90
2022/08/18 12:48:13;;;;;;;12.50;7.42;;;;;;;;;;1513524;93;20941;-90
2022/08/18 12:50:39;;;;;;;15.43;7.55;;;;;;;;;;1513804;93;21072;-90
2022/08/18 12:53:05;;;;;;;15.88;7.60;;;;;;;;;;1503905;95;21109;-90
2022/08/18 12:55:35;;;;;;;14.40;7.70;;;;;;;;;;1508236;95;21016;-89
2022/08/18 12:58:02;;;;;;;12.55;7.83;;;;;;;;;;1557203;91;21530;-90
2022/08/18 13:00:29;;;;;;;12.07;7.30;;;;;;;;;;1574256;91;21073;-88
2022/08/18 13:02:54;;;;;;;12.50;7.37;;;;;;;;;;1574765;91;21105;-89
2022/08/18 13:05:20;;;;;;;16.80;8.08;;;;;;;;;;1574078;89;21096;-88
2022/08/18 13:07:46;;;;;;;11.43;7.53;;;;;;;;;;1575760;91;21665;-86
2022/08/18 13:10:12;;;;;;;17.30;8.50;;;;;;;;;;1600917;88;21002;-88
2022/08/18 13:12:38;;;;;;;16.87;8.53;;;;;;;;;;1665633;86;20839;-88
2022/08/18 13:15:07;;;;;;;14.10;7.47;;;;;;;;;;1665768;86;20930;-88
2022/08/18 13:17:34;;;;;;;11.90;8.13;;;;;;;;;;1665290;86;21076;-87
2022/08/18 13:20:05;;;;;;;17.15;8.40;;;;;;;;;;1662102;86;21136;-87
2022/08/18 13:22:30;;;;;;;17.35;8.68;;;;;;;;;;1666652;85;22580;-87
2022/08/18 13:24:56;;;;;;;25.10;9.80;;;;;;;;;;1665519;86;20919;-86
2022/08/18 13:27:22;;;;;;;19.25;8.85;;;;;;;;;;1665452;84;20947;-87
2022/08/18 13:29:47;;;;;;;23.52;9.38;;;;;;;;;;1659843;86;22541;-86
2022/08/18 13:32:14;;;;;;;15.55;8.55;;;;;;;;;;1670044;85;21638;-88
2022/08/18 13:34:41;;;;;;;22.37;9.38;;;;;;;;;;1683899;85;21538;-86
2022/08/18 13:37:06;;;;;;;21.52;9.38;;;;;;;;;;1679259;85;21066;-84
2022/08/18 13:39:32;;;;;;;14.70;9.08;;;;;;;;;;1683063;85;21468;-84
2022/08/18 13:42:00;;;;;;;18.48;9.40;;;;;;;;;;1679748;84;21169;-85
2022/08/18 13:44:27;;;;;;;15.95;8.45;;;;;;;;;;1653261;85;21423;-87
2022/08/18 13:46:54;;;;;;;15.45;8.25;;;;;;;;;;1666201;85;21060;-86
2022/08/18 13:49:22;;;;;;;14.33;8.03;;;;;;;;;;1682899;85;21485;-89
2022/08/18 13:51:50;;;;;;;12.60;7.62;;;;;;;;;;1686684;85;21544;-89
2022/08/18 13:54:22;;;;;;;11.95;8.08;;;;;;;;;;1686717;85;21067;-90
2022/08/18 13:56:48;;;;;;;17.52;8.28;;;;;;;;;;1686518;85;21029;-91
2022/08/18 13:59:15;;;;;;;12.40;8.33;;;;;;;;;;1686247;85;21599;-89
2022/08/18 14:01:41;;;;;;;16.30;7.80;;;;;;;;;;1721368;82;21103;-89
2022/08/18 14:04:07;;;;;;;12.25;6.97;;;;;;;;;;1745031;82;21168;-91
2022/08/18 14:06:33;;;;;;;11.88;6.90;;;;;;;;;;1742889;81;21065;-89
2022/08/18 14:08:58;;;;;;;12.43;7.37;;;;;;;;;;1741712;82;20955;-89
2022/08/18 14:11:28;;;;;;;13.05;7.60;;;;;;;;;;1746402;82;20978;-89
2022/08/18 14:13:54;;;;;;;14.95;7.42;;;;;;;;;;1741689;82;21055;-90
2022/08/18 14:16:20;;;;;;;17.60;7.95;;;;;;;;;;1740953;82;21036;-90
2022/08/18 14:26:47;;;;;;;14.10;7.05;;;;;;;;;;1741187;82;21615;-88
2022/08/18 14:26:49;;;;;;;17.73;7.47;;;;;;;;;;1741154;82;21014;-90
2022/08/18 14:29:15;;;;;;;21.55;7.92;;;;;;;;;;1741389;82;21558;-91
2022/08/18 14:31:42;;;;;;;10.50;6.95;;;;;;;;;;1740880;82;21064;-89
2022/08/18 14:34:08;;;;;;;11.70;7.30;;;;;;;;;;1741385;82;21055;-89
2022/08/18 14:36:34;;;;;;;15.35;7.78;;;;;;;;;;1730175;81;21571;-89
2022/08/18 14:39:01;;;;;;;13.10;7.53;;;;;;;;;;1746211;81;21054;-88
2022/08/18 14:41:27;;;;;;;14.63;7.37;;;;;;;;;;1737095;81;21042;-89
2022/08/18 14:43:55;;;;;;;13.28;7.08;;;;;;;;;;1736965;81;21105;-89
2022/08/18 14:46:21;;;;;;;13.70;7.30;;;;;;;;;;1706064;82;21285;-90
2022/08/18 14:48:47;;;;;;;13.90;6.40;;;;;;;;;;1711514;82;21604;-89
2022/08/18 14:51:13;;;;;;;11.85;7.12;;;;;;;;;;1740144;81;20949;-89
2022/08/18 14:53:40;;;;;;;12.60;6.95;;;;;;;;;;1744637;81;20846;-89
2022/08/18 14:56:06;;;;;;;14.03;7.25;;;;;;;;;;1749202;81;21613;-87
2022/08/18 14:58:32;;;;;;;11.28;7.22;;;;;;;;;;1741301;81;21057;-91
2022/08/18 15:01:02;;;;;;;12.45;7.58;;;;;;;;;;1750692;81;20912;-89
2022/08/18 15:03:29;;;;;;;13.38;7.60;;;;;;;;;;1768169;81;21051;-90
2022/08/18 15:05:57;;;;;;;17.35;8.35;;;;;;;;;;1762255;81;21016;-88
2022/08/18 15:08:22;;;;;;;13.00;7.53;;;;;;;;;;1712798;83;21603;-89
2022/08/18 15:10:48;;;;;;;18.17;8.03;;;;;;;;;;1718109;83;20936;-91
2022/08/18 15:13:14;;;;;;;18.62;7.60;;;;;;;;;;1717732;82;21249;-89
2022/08/18 15:15:42;;;;;;;16.25;8.13;;;;;;;;;;1725683;82;20908;-89
2022/08/18 15:18:08;;;;;;;14.65;8.65;;;;;;;;;;1714855;82;21078;-89
2022/08/18 15:25:40;;;;;;;16.93;8.05;;;;;;;;;;1714476;82;21145;-92